Weather observations for the past three days for
Monmouth Executive Airport
Imperial (Metric)
Date Time (edt) Wind (mph) Vis. (mi.) Weather Sky Cond. Temperature (ºF) Relative Humidity Wind Chill (°F) Heat Index (°F) Pressure Precipitation (in)
Air Dwpt 6 hour altimeter (in) sea level (mb) 1 hr 3 hr 6 hr
Max. Min.
06 16:56 SW 9 10.00 Overcast OVC026 68 64 87% 29.75 1007.3
06 15:56 SW 13 10.00 Overcast OVC024 66.9 64 91% 29.76 1007.8
06 14:56 S 17 G 22 8.00 Light Rain SCT024 OVC031 64 64 100% 29.78 1008.3
06 13:56 SE 7 10.00 Overcast OVC044 66.2 0 73.9 64.9 0% 29.79 1008.6
06 12:56 SE 12 10.00 Overcast SCT034 BKN044 OVC050 66 64 93% 29.81 1009.4
06 11:56 S 10 G 18 10.00 Mostly Cloudy FEW033 BKN110 73 54 51% 29.83 1010.0
06 10:56 SW 18 G 28 10.00 A Few Clouds FEW110 73 53.1 50% 29.83 1010.2
06 09:56 S 14 G 28 10.00 Mostly Cloudy BKN120 72 55.9 57% 29.83 1010.2
06 08:56 SW 12 G 22 10.00 Fair CLR 68 57 68% 29.85 1010.7
06 07:56 SW 14 G 21 10.00 Fair CLR 64.9 57.9 64.9 61 78% 29.86 1010.9
06 06:56 S 12 10.00 Fair CLR 62.1 62.1 100% 29.86 1011.0
06 05:56 S 10 G 18 10.00 Fair CLR 61 61 100% 29.85 1010.7
06 04:56 S 9 G 20 10.00 Fair CLR 62.1 62.1 100% 29.86 1011.2
06 03:56 S 12 10.00 Fair CLR 63 62.1 97% 29.86 1011.2
06 02:56 S 7 G 16 10.00 Fair CLR 64 61 90% 29.87 1011.5
06 01:56 S 9 10.00 Fair CLR 63 61 71.1 63 93% 29.87 1011.5
06 00:56 S 12 10.00 Fair CLR 64 57.9 81% 29.88 1011.9
05 23:56 S 9 10.00 Fair CLR 66 57 73% 29.88 1011.9
05 22:56 S 10 G 17 10.00 Fair CLR 66.9 55.9 68% 29.88 1011.9
05 21:56 S 10 G 22 10.00 Fair CLR 68 55 63% 29.89 1012.1
05 20:56 S 13 10.00 Fair CLR 69.1 53.1 57% 29.87 1011.4
05 19:56 S 13 G 21 10.00 Fair CLR 71.1 52 81 71.1 51% 29.86 1010.9
05 18:56 S 12 G 22 10.00 Fair CLR 73.9 52 46% 29.83 1010.1
05 17:56 S 13 G 28 10.00 Fair CLR 77 51.1 40% 78 29.81 1009.4
05 16:56 S 12 G 18 10.00 Fair CLR 78.1 55.9 47% 79 29.8 1008.9
05 15:56 S 15 G 22 10.00 Fair CLR 78.1 55.9 47% 79 29.8 1008.9
05 14:56 SE 10 10.00 A Few Clouds FEW090 78.1 57.9 50% 79 29.82 1009.7
05 13:56 SE 15 G 21 10.00 A Few Clouds FEW080 79 57 82 64.9 47% 80 29.84 1010.3
05 12:56 SE 10 G 16 10.00 Fair CLR 82 52 35% 81 29.85 1010.7
05 11:56 SW 9 10.00 Fair CLR 80.1 50 35% 80 29.87 1011.5
05 10:56 SW 9 G 16 10.00 Fair CLR 77 51.1 40% 78 29.89 1011.9
05 09:56 SW 8 10.00 Fair CLR 72 51.1 48% 29.89 1012.1
05 08:56 SW 14 G 21 10.00 Fair CLR 69.1 52 55% 29.9 1012.3
05 07:56 SW 8 10.00 Fair CLR 64.9 53.1 64.9 57 66% 29.89 1012.0
05 06:56 SW 7 10.00 Mostly Cloudy BKN110 61 55 81% 29.88 1011.8
05 05:56 SW 8 10.00 Fair CLR 59 57.9 96% 29.86 1011.2
05 04:56 SW 7 10.00 Partly Cloudy SCT110 57.9 57.9 100% 29.87 1011.3
05 03:56 SW 8 10.00 Fair CLR 57.9 57 97% 29.86 1011.2
05 02:56 S 6 10.00 Fair CLR 57.9 55.9 93% 29.86 1011.1
05 01:56 S 7 10.00 Fair CLR 59 53.1 64.9 59 81% 29.87 1011.3
05 00:56 S 8 10.00 Fair CLR 60.1 51.1 72% 29.87 1011.5
04 23:56 S 8 10.00 Fair CLR 61 48 63% 29.88 1011.7
04 22:56 S 7 10.00 Fair CLR 61 46.9 60% 29.89 1012.0
04 21:56 S 6 10.00 Fair CLR 60.1 48 65% 29.89 1012.2
04 20:56 S 9 10.00 Fair CLR 62.1 46 56% 29.88 1011.7
04 19:56 S 9 G 18 10.00 Fair CLR 64.9 43 73.9 64.9 45% 29.85 1010.9
04 18:56 S 15 G 20 10.00 Fair CLR 66.9 44.1 44% 29.84 1010.4
04 17:56 SE 14 G 20 10.00 Fair CLR 69.1 46.9 45% 29.84 1010.3
04 16:56 SE 12 10.00 Fair CLR 68 48 49% 29.84 1010.4
04 15:56 SW 9 G 20 10.00 Fair CLR 73.9 36 25% 29.84 1010.5
04 14:56 W 12 G 22 10.00 Fair CLR 73 36 26% 29.87 1011.3
04 13:56 W 12 G 20 10.00 Fair CLR 72 37 72 53.1 28% 29.89 1012.0
04 12:56 SW 12 G 18 10.00 Fair CLR 70 36 29% 29.91 1012.8
04 11:56 SW 16 G 23 10.00 A Few Clouds FEW070 68 35.1 30% 29.93 1013.6
04 10:56 SW 13 G 21 10.00 Fair CLR 66 36 33% 29.94 1014.0
04 09:56 SW 16 G 24 10.00 Fair CLR 64 36 35% 29.95 1014.3
04 08:56 SW 8 G 20 10.00 Fair CLR 59 41 51% 29.97 1015.0
04 07:56 SW 14 G 20 10.00 Fair CLR 53.1 43 53.1 46 69% 29.98 1015.3
04 06:56 SW 10 10.00 Fair CLR 50 41 71% 46 29.99 1015.6
04 05:56 SW 12 G 17 10.00 Fair CLR 48 37.9 68% 44 29.99 1015.5
04 04:56 SW 9 10.00 Fair CLR 46 34 63% 42 29.98 1015.4
04 03:56 SW 7 10.00 Fair CLR 46.9 33.1 59% 44 29.98 1015.2
04 02:56 SW 7 10.00 Fair CLR 46.9 32 56% 44 29.97 1014.8
04 01:56 SW 8 10.00 Fair CLR 48 30.9 55.9 48 52% 45 29.97 1014.8
04 00:56 SW 9 10.00 Fair CLR 48.9 30 48% 45 29.96 1014.6
03 23:56 SW 7 10.00 Fair CLR 50 30 46% 48 29.95 1014.2
03 22:56 SW 6 10.00 Fair CLR 48.9 28.9 46% 47 29.94 1013.9
03 21:56 SW 8 10.00 Fair CLR 51.1 28 41% 29.94 1013.9
03 20:56 SW 6 10.00 Fair CLR 53.1 27 37% 29.92 1013.2
03 19:56 SW 6 10.00 Fair CLR 55.9 26.1 60.1 54 32% 29.9 1012.5
03 18:56 W 12 G 16 10.00 Fair CLR 59 24.1 26% 29.88 1012.0
03 17:56 W 13 G 23 10.00 Fair CLR 59 23 25% 29.88 1011.9
Date Time (edt) Wind (mph) Vis. (mi.) Weather Sky Cond. Air Dwpt Max. Min. Relative Humidity Wind Chill (°F) Heat Index (°F) altimeter (in) sea level (mb) 1 hr 3 hr 6 hr
6 hour
Temperature (ºF) Pressure Precipitation (in)